Time;durP1;ratioP1;P1;durP2;ratioP2;P2;SDS_P1;SDS_P2;PMS_P1;PMS_P2;Temp;Humidity;BMP_temperature;BMP_pressure;BME280_temperature;BME280_humidity;BME280_pressure;Samples;Min_cycle;Max_cycle;Signal;HPM_P1;HPM_P2
2022/01/26 00:06:02;;;;;;;1.60;1.53;;;-5.40;71.60;;;;;;5074196;28;20574;-74
2022/01/26 00:08:28;;;;;;;2.57;1.27;;;-5.40;71.50;;;;;;5067620;28;20183;-74
2022/01/26 00:10:53;;;;;;;1.83;1.80;;;-5.40;71.60;;;;;;5074276;28;20270;-74
2022/01/26 00:13:19;;;;;;;2.30;1.73;;;-5.30;71.60;;;;;;5071179;28;20185;-74
2022/01/26 00:15:45;;;;;;;1.70;1.20;;;-5.30;71.60;;;;;;5069209;28;21868;-74
2022/01/26 00:18:11;;;;;;;3.00;2.03;;;-5.30;71.50;;;;;;5063668;28;20234;-75
2022/01/26 00:20:43;;;;;;;2.00;1.87;;;-5.30;71.40;;;;;;5074116;28;20723;-74
2022/01/26 00:28:58;;;;;;;1.87;1.13;;;-5.40;71.60;;;;;;5021952;28;20277;-74
2022/01/26 00:38:34;;;;;;;1.10;1.10;;;-5.40;71.70;;;;;;5021423;28;20251;-74
2022/01/26 00:40:16;;;;;;;0.80;0.80;;;-5.40;72.00;;;;;;5019282;28;20253;-73
2022/01/26 00:42:44;;;;;;;1.37;1.37;;;-5.40;72.10;;;;;;5008934;28;20191;-76
2022/01/26 00:45:10;;;;;;;2.60;2.40;;;-5.40;72.10;;;;;;5025352;28;20180;-75
2022/01/26 00:47:36;;;;;;;4.20;1.50;;;-5.40;72.30;;;;;;5025405;28;20194;-74
2022/01/26 00:50:07;;;;;;;2.47;2.03;;;-5.50;72.30;;;;;;5025671;28;20192;-74
2022/01/26 00:52:41;;;;;;;3.20;2.33;;;-5.50;72.30;;;;;;5021821;28;20202;-73
2022/01/26 00:55:11;;;;;;;1.80;1.60;;;-5.40;72.30;;;;;;5022968;28;20346;-73
2022/01/26 00:57:36;;;;;;;4.63;2.57;;;-5.40;72.40;;;;;;5024899;28;20202;-75
2022/01/26 01:00:09;;;;;;;2.23;1.40;;;-5.30;72.40;;;;;;5023691;28;20235;-75
2022/01/26 01:02:35;;;;;;;1.13;0.97;;;-5.30;72.30;;;;;;5023926;28;20217;-74
2022/01/26 01:05:13;;;;;;;4.83;2.23;;;-5.30;72.30;;;;;;5042552;28;20187;-75
2022/01/26 01:07:40;;;;;;;2.70;2.50;;;-5.30;72.60;;;;;;5074883;28;20170;-74
2022/01/26 01:10:07;;;;;;;5.77;4.87;;;-5.30;72.70;;;;;;5070780;28;21015;-75
2022/01/26 01:12:39;;;;;;;5.67;5.13;;;-5.30;72.80;;;;;;5077692;28;21610;-75
2022/01/26 01:15:06;;;;;;;7.27;5.47;;;-5.30;73.00;;;;;;5074450;28;20181;-75
2022/01/26 01:17:38;;;;;;;13.00;8.03;;;-5.40;72.90;;;;;;5073992;28;20194;-75
2022/01/26 01:30:08;;;;;;;7.80;5.27;;;-5.70;73.30;;;;;;5067754;28;20195;-75
2022/01/26 01:32:49;;;;;;;5.53;4.20;;;-5.80;73.50;;;;;;5082382;28;20684;-75
2022/01/26 01:35:15;;;;;;;4.00;3.57;;;-5.80;73.70;;;;;;5068522;28;20186;-75
2022/01/26 01:37:41;;;;;;;4.60;3.87;;;-5.80;73.80;;;;;;5073180;28;20298;-75
2022/01/26 01:40:07;;;;;;;6.60;4.17;;;-5.80;73.80;;;;;;5071747;28;20253;-74
2022/01/26 01:42:33;;;;;;;4.57;3.67;;;-5.80;73.70;;;;;;5074573;28;20710;-75
2022/01/26 01:44:59;;;;;;;9.60;3.67;;;-5.80;73.70;;;;;;5078076;28;20183;-75
2022/01/26 01:47:24;;;;;;;5.33;4.30;;;-5.80;73.80;;;;;;5073702;28;20185;-75
2022/01/26 01:49:50;;;;;;;8.63;5.20;;;-5.80;74.00;;;;;;5077133;28;20194;-74
2022/01/26 01:52:17;;;;;;;4.87;4.40;;;-5.80;74.00;;;;;;5073569;28;20300;-74
2022/01/26 01:54:49;;;;;;;5.57;3.97;;;-5.90;73.80;;;;;;5075079;28;20175;-75
2022/01/26 01:57:21;;;;;;;8.20;4.17;;;-6.00;74.00;;;;;;5075105;28;20197;-75
2022/01/26 01:59:46;;;;;;;7.00;3.40;;;-6.00;74.40;;;;;;5068533;28;20330;-75
2022/01/26 02:02:12;;;;;;;4.17;3.77;;;-6.10;74.80;;;;;;5068797;28;20273;-75
2022/01/26 02:04:38;;;;;;;4.20;3.73;;;-6.10;74.90;;;;;;5076777;28;20189;-74
2022/01/26 02:07:04;;;;;;;5.67;4.00;;;-6.10;75.10;;;;;;5072878;28;20722;-74
2022/01/26 02:09:29;;;;;;;5.97;3.63;;;-6.10;74.90;;;;;;5079045;28;20732;-74
2022/01/26 02:11:57;;;;;;;4.47;2.87;;;-6.10;75.00;;;;;;5076946;28;20196;-75
2022/01/26 02:49:20;;;;;;;10.57;4.37;;;-6.00;75.00;;;;;;5076093;28;20234;-75
2022/01/26 02:55:07;;;;;;;5.03;2.73;;;-5.50;75.30;;;;;;5030969;28;20219;-75
2022/01/26 03:00:25;;;;;;;7.47;2.90;;;-5.40;75.40;;;;;;4975589;28;20225;-76
2022/01/26 03:02:58;;;;;;;1.53;1.43;;;-5.40;75.20;;;;;;4973227;28;20202;-74
2022/01/26 03:05:31;;;;;;;4.30;2.73;;;-5.30;75.30;;;;;;4973276;28;20332;-74
2022/01/26 03:08:02;;;;;;;1.73;1.63;;;-5.30;75.20;;;;;;4973195;28;20290;-74
2022/01/26 03:10:45;;;;;;;1.53;1.53;;;-5.20;75.20;;;;;;4974642;28;20689;-75
2022/01/26 03:13:16;;;;;;;1.80;1.70;;;-5.20;75.20;;;;;;4977976;28;20204;-74
2022/01/26 03:15:48;;;;;;;2.43;1.33;;;-5.20;75.30;;;;;;4972414;28;20197;-75
2022/01/26 03:21:01;;;;;;;4.20;1.77;;;-5.10;75.30;;;;;;5000084;28;20237;-75
2022/01/26 03:34:10;;;;;;;1.90;1.80;;;-5.00;75.20;;;;;;5030120;28;20334;-74
2022/01/26 03:36:59;;;;;;;3.13;2.93;;;-5.10;75.30;;;;;;5032680;28;20183;-74
2022/01/26 03:39:26;;;;;;;5.47;2.17;;;-5.10;75.20;;;;;;5074421;28;20175;-73
2022/01/26 03:42:14;;;;;;;2.30;2.07;;;-5.10;75.20;;;;;;5073787;28;20194;-73
2022/01/26 03:44:39;;;;;;;2.57;1.97;;;-5.10;75.20;;;;;;5073158;28;20212;-74
2022/01/26 03:47:04;;;;;;;4.93;2.43;;;-5.00;75.20;;;;;;5073496;28;20183;-75
2022/01/26 03:49:30;;;;;;;2.77;2.53;;;-5.00;75.20;;;;;;5073201;28;20191;-73
2022/01/26 03:51:56;;;;;;;1.97;1.97;;;-5.00;75.30;;;;;;5074435;28;20183;-73
2022/01/26 03:54:22;;;;;;;6.17;2.63;;;-5.00;75.30;;;;;;5064766;28;20768;-74
2022/01/26 03:56:48;;;;;;;2.50;2.30;;;-4.90;75.30;;;;;;5068095;28;20186;-74
2022/01/26 03:59:14;;;;;;;1.73;1.37;;;-4.90;75.30;;;;;;5066610;28;20191;-74
2022/01/26 04:01:40;;;;;;;1.13;1.07;;;-4.90;75.40;;;;;;5069761;28;20211;-74
2022/01/26 04:04:07;;;;;;;0.73;0.73;;;-4.90;74.60;;;;;;5075176;28;20183;-74
2022/01/26 04:06:33;;;;;;;3.23;1.93;;;-4.80;74.60;;;;;;5067289;28;20744;-74
2022/01/26 04:09:00;;;;;;;1.93;1.67;;;-4.80;74.50;;;;;;5067010;28;20207;-74
2022/01/26 04:14:00;;;;;;;1.37;1.33;;;-4.60;74.40;;;;;;5075936;28;20186;-74
2022/01/26 04:16:26;;;;;;;2.83;1.10;;;-4.50;74.40;;;;;;5073217;28;20183;-74
2022/01/26 04:18:53;;;;;;;1.93;1.80;;;-4.50;73.80;;;;;;5072133;28;20188;-73
2022/01/26 04:23:54;;;;;;;9.67;1.33;;;-4.40;73.50;;;;;;5078809;28;20179;-75
2022/01/26 04:26:26;;;;;;;1.43;0.80;;;-4.30;73.60;;;;;;5077163;28;20178;-74
2022/01/26 04:28:58;;;;;;;2.50;1.33;;;-4.20;73.30;;;;;;5094479;28;20191;-74
2022/01/26 04:31:24;;;;;;;2.37;1.00;;;-4.20;72.90;;;;;;5085485;28;20195;-74
2022/01/26 04:33:51;;;;;;;2.50;1.83;;;-4.20;72.80;;;;;;5084835;28;20183;-74
2022/01/26 04:36:24;;;;;;;1.23;1.23;;;-4.10;72.70;;;;;;5075661;28;20194;-74
2022/01/26 04:38:54;;;;;;;6.67;1.00;;;-4.10;72.60;;;;;;5077121;28;20185;-75
2022/01/26 04:44:00;;;;;;;0.87;0.87;;;-4.00;72.70;;;;;;5069709;28;21093;-76
2022/01/26 04:46:26;;;;;;;2.97;1.93;;;-4.00;72.40;;;;;;5081489;28;20183;-74
2022/01/26 04:48:53;;;;;;;1.50;1.37;;;-4.00;72.60;;;;;;5073101;28;20975;-74
2022/01/26 04:51:18;;;;;;;1.47;1.47;;;-4.00;72.50;;;;;;5068863;28;20188;-74
2022/01/26 04:53:44;;;;;;;1.40;1.30;;;-4.00;72.30;;;;;;5078669;28;20175;-74
2022/01/26 04:56:10;;;;;;;1.23;1.17;;;-4.00;72.50;;;;;;5073450;28;20197;-75
2022/01/26 04:58:37;;;;;;;1.37;1.33;;;-4.00;72.40;;;;;;5074139;28;20256;-74
2022/01/26 05:01:02;;;;;;;1.43;1.37;;;-4.00;72.30;;;;;;5079494;28;20212;-74
2022/01/26 05:03:28;;;;;;;3.80;1.83;;;-4.00;72.30;;;;;;5077578;28;20185;-74
2022/01/26 05:05:54;;;;;;;1.73;1.63;;;-4.00;72.20;;;;;;5074444;28;20726;-74
2022/01/26 05:08:20;;;;;;;1.33;1.20;;;-3.90;72.10;;;;;;5072139;28;20185;-75
2022/01/26 05:10:45;;;;;;;2.40;1.73;;;-3.90;71.70;;;;;;5081027;28;20179;-75
2022/01/26 05:13:13;;;;;;;6.13;2.13;;;-3.90;71.90;;;;;;5074595;28;20197;-74
2022/01/26 05:15:39;;;;;;;0.97;0.73;;;-3.90;72.00;;;;;;5075598;28;20186;-73
2022/01/26 05:18:06;;;;;;;1.80;1.40;;;-3.80;72.20;;;;;;5076349;28;20187;-74
2022/01/26 05:20:33;;;;;;;2.80;2.13;;;-3.80;72.10;;;;;;5075125;28;20209;-75
2022/01/26 05:22:59;;;;;;;1.57;1.47;;;-3.80;72.10;;;;;;5068317;28;20516;-76
2022/01/26 05:25:24;;;;;;;2.47;2.10;;;-3.80;72.30;;;;;;5075831;28;20184;-75
2022/01/26 05:27:50;;;;;;;1.50;1.40;;;-3.80;71.90;;;;;;5076605;28;20187;-75
2022/01/26 05:30:16;;;;;;;1.53;1.43;;;-3.80;72.00;;;;;;5076621;28;20213;-74
2022/01/26 05:32:41;;;;;;;1.53;1.53;;;-3.70;72.10;;;;;;5073133;28;20832;-75
2022/01/26 05:35:08;;;;;;;1.57;1.47;;;-3.70;72.30;;;;;;5075389;28;20193;-75
2022/01/26 05:37:33;;;;;;;2.83;1.60;;;-3.70;72.60;;;;;;5075389;28;20654;-75
2022/01/26 05:40:00;;;;;;;2.37;2.17;;;-3.70;72.30;;;;;;5081798;28;20221;-76
2022/01/26 05:42:26;;;;;;;1.43;1.43;;;-3.70;72.30;;;;;;5075349;28;20189;-75
2022/01/26 05:44:53;;;;;;;4.10;1.47;;;-3.70;72.70;;;;;;5065410;28;20763;-75
2022/01/26 05:47:20;;;;;;;5.23;2.20;;;-3.70;72.70;;;;;;5071117;28;20177;-78
2022/01/26 05:49:47;;;;;;;3.10;1.67;;;-3.70;72.70;;;;;;5071989;28;20202;-74
2022/01/26 05:52:12;;;;;;;4.60;1.93;;;-3.70;72.80;;;;;;5078359;28;20190;-74
2022/01/26 05:54:38;;;;;;;2.30;2.20;;;-3.70;73.40;;;;;;5066273;28;20186;-74
2022/01/26 05:57:04;;;;;;;2.30;2.00;;;-3.70;73.70;;;;;;5070391;28;20195;-76
2022/01/26 05:59:32;;;;;;;2.60;2.13;;;-3.70;74.10;;;;;;5065130;28;20301;-76
2022/01/26 06:01:58;;;;;;;1.57;1.47;;;-3.60;74.30;;;;;;5089610;28;20196;-75
2022/01/26 06:04:24;;;;;;;2.80;2.27;;;-3.60;74.40;;;;;;5071858;28;20716;-76
2022/01/26 06:06:49;;;;;;;5.63;1.60;;;-3.50;74.50;;;;;;5065621;28;20651;-71
2022/01/26 06:09:15;;;;;;;5.53;2.73;;;-3.50;74.60;;;;;;5069793;28;20189;-71
2022/01/26 06:11:41;;;;;;;1.40;1.30;;;-3.50;74.70;;;;;;5068508;28;20213;-70
2022/01/26 06:14:06;;;;;;;6.07;2.23;;;-3.40;74.70;;;;;;5064820;28;20172;-71
2022/01/26 06:16:32;;;;;;;2.93;2.30;;;-3.30;74.70;;;;;;5065952;28;20926;-69
2022/01/26 06:18:58;;;;;;;3.23;2.53;;;-3.20;74.60;;;;;;5061974;28;20239;-71
2022/01/26 06:21:24;;;;;;;3.70;2.27;;;-3.20;74.70;;;;;;5069297;28;20219;-72
2022/01/26 06:23:50;;;;;;;2.70;2.50;;;-3.10;74.70;;;;;;5068253;28;20189;-71
2022/01/26 06:26:15;;;;;;;7.33;3.13;;;-3.10;74.80;;;;;;5064864;28;20628;-74
2022/01/26 06:28:41;;;;;;;4.93;2.30;;;-3.10;74.90;;;;;;5060977;28;20193;-71
2022/01/26 06:31:11;;;;;;;4.03;2.73;;;-3.10;75.20;;;;;;5058382;28;20221;-75
2022/01/26 06:33:40;;;;;;;2.70;2.60;;;-3.10;75.70;;;;;;5067959;28;20219;-72
2022/01/26 06:36:06;;;;;;;5.50;2.77;;;-3.10;75.90;;;;;;5063889;28;20268;-72
2022/01/26 06:38:31;;;;;;;0.70;0.70;;;-3.10;76.40;;;;;;5064272;28;20339;-71
2022/01/26 06:40:59;;;;;;;2.47;2.03;;;-3.10;76.40;;;;;;5060088;28;20221;-72
2022/01/26 06:43:28;;;;;;;4.33;3.60;;;-3.00;76.50;;;;;;5054097;28;20185;-72
2022/01/26 06:46:00;;;;;;;5.33;2.10;;;-3.00;76.80;;;;;;5060024;28;20182;-74
2022/01/26 06:48:45;;;;;;;3.83;2.30;;;-3.00;77.10;;;;;;5064553;28;20183;-71
2022/01/26 06:51:13;;;;;;;2.13;2.03;;;-2.90;77.30;;;;;;5068337;28;20192;-71
2022/01/26 06:53:39;;;;;;;6.23;3.17;;;-2.90;77.40;;;;;;5066155;28;20236;-72
2022/01/26 06:56:05;;;;;;;4.00;3.03;;;-2.90;77.80;;;;;;5068248;28;20253;-72
2022/01/26 06:58:31;;;;;;;3.33;2.33;;;-2.90;78.10;;;;;;5067025;28;20186;-72
2022/01/26 07:00:57;;;;;;;2.50;1.77;;;-2.90;78.40;;;;;;5065347;28;20614;-72
2022/01/26 07:03:24;;;;;;;5.63;2.33;;;-3.00;78.80;;;;;;5067283;28;20697;-73
2022/01/26 07:05:50;;;;;;;2.87;2.77;;;-3.00;79.20;;;;;;5062755;28;20242;-73
2022/01/26 07:08:15;;;;;;;9.70;2.93;;;-3.00;79.40;;;;;;5066788;28;20223;-74
2022/01/26 07:10:42;;;;;;;2.83;2.67;;;-3.00;79.60;;;;;;5067692;28;20194;-74
2022/01/26 07:13:08;;;;;;;1.47;1.37;;;-3.00;79.80;;;;;;5066373;28;20573;-73
2022/01/26 07:23:28;;;;;;;3.70;1.80;;;-2.90;80.80;;;;;;5069191;28;20201;-73
2022/01/26 07:25:54;;;;;;;1.80;1.70;;;-2.90;81.20;;;;;;5066935;28;20182;-73
2022/01/26 07:28:20;;;;;;;2.27;2.10;;;-2.90;81.50;;;;;;5068118;28;20185;-73
2022/01/26 07:30:45;;;;;;;2.90;2.70;;;-2.90;81.60;;;;;;5065596;28;20193;-74
2022/01/26 07:33:12;;;;;;;5.87;1.60;;;-2.80;81.50;;;;;;5074621;28;20209;-73
2022/01/26 07:35:38;;;;;;;3.23;2.20;;;-2.80;81.50;;;;;;5073501;28;20185;-74
2022/01/26 07:38:04;;;;;;;3.60;3.07;;;-2.80;81.30;;;;;;5065438;28;20196;-72
2022/01/26 07:40:31;;;;;;;2.50;2.40;;;-2.70;81.20;;;;;;5066118;28;20206;-73
2022/01/26 07:42:56;;;;;;;1.40;1.37;;;-2.70;81.20;;;;;;5069709;28;20184;-73
2022/01/26 07:45:23;;;;;;;3.80;2.03;;;-2.70;81.30;;;;;;5066300;28;20189;-72
2022/01/26 07:47:52;;;;;;;3.63;3.43;;;-2.70;81.40;;;;;;5060924;28;20179;-72
2022/01/26 07:50:20;;;;;;;3.60;2.50;;;-2.70;81.50;;;;;;5063818;28;20193;-74
2022/01/26 07:52:45;;;;;;;4.70;2.23;;;-2.60;81.50;;;;;;5069718;28;20185;-75
2022/01/26 07:55:16;;;;;;;2.63;2.07;;;-2.60;81.90;;;;;;5069239;28;20805;-74
2022/01/26 07:57:43;;;;;;;1.80;1.70;;;-2.50;82.00;;;;;;5066267;28;20197;-73
2022/01/26 08:00:10;;;;;;;5.30;2.70;;;-2.50;82.10;;;;;;5064894;28;20243;-75
2022/01/26 08:02:35;;;;;;;2.27;1.60;;;-2.50;82.10;;;;;;5068404;28;20187;-75
2022/01/26 08:05:01;;;;;;;3.03;2.50;;;-2.50;82.30;;;;;;5068370;28;20180;-74
2022/01/26 08:07:27;;;;;;;2.23;1.97;;;-2.50;82.60;;;;;;5068695;28;20368;-74
2022/01/26 08:09:53;;;;;;;2.20;1.97;;;-2.50;82.80;;;;;;5071375;28;20249;-74
2022/01/26 08:12:18;;;;;;;2.97;2.70;;;-2.50;82.90;;;;;;5064756;28;20226;-75
2022/01/26 08:14:45;;;;;;;3.03;2.73;;;-2.40;83.00;;;;;;5069733;28;20673;-73
2022/01/26 08:17:14;;;;;;;2.67;2.30;;;-2.50;83.40;;;;;;5058674;28;20179;-74
2022/01/26 08:19:40;;;;;;;2.23;2.03;;;-2.40;83.50;;;;;;5066988;28;20237;-75
2022/01/26 08:22:07;;;;;;;2.50;2.40;;;-2.40;83.90;;;;;;5067246;28;20182;-74
2022/01/26 08:24:33;;;;;;;3.07;2.13;;;-2.50;84.00;;;;;;5070362;28;20182;-75
2022/01/26 08:27:06;;;;;;;3.30;3.00;;;-2.50;84.10;;;;;;5064189;28;20175;-75
2022/01/26 08:29:41;;;;;;;4.47;3.63;;;-2.50;84.50;;;;;;5066978;28;20229;-75
2022/01/26 08:32:07;;;;;;;1.83;1.73;;;-2.50;84.70;;;;;;5061080;28;20179;-74
2022/01/26 08:34:32;;;;;;;3.50;3.20;;;-2.40;84.80;;;;;;5065279;28;20205;-75
2022/01/26 08:36:58;;;;;;;2.00;1.83;;;-2.40;85.00;;;;;;5071044;28;20178;-75
2022/01/26 08:39:24;;;;;;;1.67;1.57;;;-2.40;85.00;;;;;;5066915;28;20266;-75
2022/01/26 08:41:50;;;;;;;2.93;2.33;;;-2.30;85.00;;;;;;5061513;28;20641;-74
2022/01/26 08:44:15;;;;;;;2.17;1.47;;;-2.30;85.10;;;;;;5067955;28;20712;-74
2022/01/26 08:46:42;;;;;;;1.93;1.83;;;-2.30;85.40;;;;;;5065497;28;20266;-75
2022/01/26 08:49:08;;;;;;;1.93;1.83;;;-2.20;85.50;;;;;;5066804;28;20197;-74
2022/01/26 08:51:34;;;;;;;3.07;1.83;;;-2.20;85.20;;;;;;5062613;28;20186;-74
2022/01/26 08:53:59;;;;;;;2.47;2.27;;;-2.10;85.20;;;;;;5064934;28;20186;-74
2022/01/26 08:56:26;;;;;;;4.00;2.60;;;-2.00;85.20;;;;;;5064221;28;20214;-75
2022/01/26 08:58:53;;;;;;;3.70;2.17;;;-2.00;85.20;;;;;;5064382;28;20732;-75
2022/01/26 09:01:19;;;;;;;4.93;2.57;;;-2.00;85.10;;;;;;5072463;28;20214;-75
2022/01/26 09:03:45;;;;;;;3.50;3.20;;;-1.90;85.00;;;;;;5071265;28;20271;-76
2022/01/26 09:06:11;;;;;;;3.03;2.57;;;-1.90;85.00;;;;;;5068471;28;20180;-75
2022/01/26 09:08:40;;;;;;;3.43;1.50;;;-1.90;85.00;;;;;;5069512;28;20183;-75
2022/01/26 09:11:07;;;;;;;3.17;2.53;;;-1.80;84.90;;;;;;5071037;28;20182;-76
2022/01/26 09:13:34;;;;;;;2.63;2.30;;;-1.80;84.70;;;;;;5090873;28;20186;-75
2022/01/26 09:16:06;;;;;;;3.30;2.60;;;-1.80;84.80;;;;;;5071873;28;20189;-75
2022/01/26 09:18:45;;;;;;;3.03;2.20;;;-1.80;84.70;;;;;;5071242;28;20214;-75
2022/01/26 09:21:11;;;;;;;3.03;1.37;;;-1.80;84.70;;;;;;5068099;28;20203;-74
2022/01/26 09:23:37;;;;;;;9.00;2.50;;;-1.80;84.80;;;;;;5073487;28;20178;-75
2022/01/26 09:26:03;;;;;;;3.87;2.07;;;-1.80;84.80;;;;;;5071579;28;20703;-74
2022/01/26 09:28:29;;;;;;;3.10;2.43;;;-1.70;84.90;;;;;;5071339;28;20695;-75
2022/01/26 09:30:55;;;;;;;3.50;3.00;;;-1.80;84.80;;;;;;5066844;28;20201;-74
2022/01/26 09:33:21;;;;;;;7.17;2.57;;;-1.80;84.90;;;;;;5071471;28;20510;-74
2022/01/26 09:35:47;;;;;;;3.30;1.77;;;-1.80;85.00;;;;;;5071063;28;20178;-75
2022/01/26 09:38:13;;;;;;;2.50;2.30;;;-1.80;85.10;;;;;;5066801;28;20281;-74
2022/01/26 09:40:39;;;;;;;2.30;2.20;;;-1.80;85.00;;;;;;5071147;28;20757;-74
2022/01/26 09:43:06;;;;;;;1.53;1.43;;;-1.70;85.10;;;;;;5069155;28;20196;-75
2022/01/26 09:45:34;;;;;;;0.97;0.97;;;-1.70;84.80;;;;;;5072934;28;20200;-75
2022/01/26 09:48:04;;;;;;;5.20;2.87;;;-1.70;84.80;;;;;;5073188;28;20278;-74
2022/01/26 09:50:32;;;;;;;2.33;1.97;;;-1.60;84.60;;;;;;5066977;28;20194;-74
2022/01/26 09:52:58;;;;;;;2.37;2.10;;;-1.50;84.70;;;;;;5071532;28;20583;-75
2022/01/26 09:55:25;;;;;;;1.67;1.57;;;-1.40;84.50;;;;;;5070731;28;20175;-75
2022/01/26 09:57:57;;;;;;;1.70;1.67;;;-1.30;84.40;;;;;;5070901;28;20203;-75
2022/01/26 10:00:24;;;;;;;1.60;1.47;;;-1.20;84.00;;;;;;5070328;28;20206;-74
2022/01/26 10:03:01;;;;;;;6.97;3.10;;;-1.10;83.70;;;;;;5073288;28;20225;-75
2022/01/26 10:05:41;;;;;;;2.40;2.17;;;-1.00;83.30;;;;;;5072905;28;20224;-75
2022/01/26 10:19:06;;;;;;;3.07;2.17;;;-1.00;83.40;;;;;;5074319;28;20190;-75
2022/01/26 10:21:32;;;;;;;3.27;2.03;;;-1.00;83.50;;;;;;5072027;28;20214;-75
2022/01/26 10:24:07;;;;;;;1.87;1.77;;;-1.00;83.80;;;;;;5075475;28;20271;-75
2022/01/26 10:26:33;;;;;;;3.07;2.00;;;-1.00;83.90;;;;;;5070936;28;20762;-75
2022/01/26 10:29:03;;;;;;;2.03;1.93;;;-1.00;84.20;;;;;;5072948;28;20179;-75
2022/01/26 10:31:31;;;;;;;2.13;1.93;;;-1.00;84.40;;;;;;5071224;28;20190;-75
2022/01/26 10:34:02;;;;;;;1.67;1.57;;;-1.00;84.60;;;;;;5077422;28;20183;-76
2022/01/26 10:37:00;;;;;;;1.70;1.63;;;-1.00;84.60;;;;;;5076150;28;20243;-76
2022/01/26 10:39:34;;;;;;;2.33;2.17;;;-0.90;84.90;;;;;;5041544;28;20877;-75
2022/01/26 10:42:09;;;;;;;2.30;2.00;;;-1.00;85.10;;;;;;5023810;28;20246;-76
2022/01/26 10:44:45;;;;;;;2.17;2.07;;;-0.90;85.20;;;;;;5018810;28;20680;-74
2022/01/26 10:47:11;;;;;;;2.03;1.80;;;-0.90;85.40;;;;;;5025103;28;20194;-76
2022/01/26 10:54:48;;;;;;;5.00;2.43;;;-0.90;86.00;;;;;;5037101;28;20184;-76
2022/01/26 10:57:14;;;;;;;2.07;1.97;;;-0.90;86.10;;;;;;5023715;28;20192;-75
2022/01/26 10:59:47;;;;;;;2.27;2.07;;;-0.90;86.30;;;;;;5040893;28;20291;-75
2022/01/26 11:02:19;;;;;;;4.77;2.50;;;-0.90;86.40;;;;;;5040407;28;20975;-75
2022/01/26 11:04:45;;;;;;;4.57;2.60;;;-0.90;86.40;;;;;;5038181;28;20659;-75
2022/01/26 11:07:13;;;;;;;6.80;2.77;;;-0.90;86.60;;;;;;5035289;28;20189;-75
2022/01/26 11:09:43;;;;;;;2.07;1.87;;;-0.80;86.60;;;;;;5037638;28;20200;-76
2022/01/26 11:12:11;;;;;;;5.57;2.73;;;-0.90;86.60;;;;;;5036555;28;20387;-75
2022/01/26 11:14:46;;;;;;;2.47;2.23;;;-0.80;86.90;;;;;;5050060;28;20198;-75
2022/01/26 11:17:33;;;;;;;3.07;2.77;;;-0.80;86.80;;;;;;5073007;28;20267;-75
2022/01/26 11:20:00;;;;;;;3.17;2.53;;;-0.70;86.60;;;;;;5067425;28;20304;-74
2022/01/26 11:22:31;;;;;;;1.73;1.63;;;-0.70;86.60;;;;;;5079320;28;20183;-75
2022/01/26 11:25:11;;;;;;;2.23;2.13;;;-0.60;86.60;;;;;;5070779;28;20727;-74
2022/01/26 11:27:40;;;;;;;4.07;2.10;;;-0.60;86.60;;;;;;5068303;28;20186;-74
2022/01/26 11:30:15;;;;;;;3.47;2.73;;;-0.50;86.60;;;;;;5074125;28;20182;-76
2022/01/26 11:33:03;;;;;;;3.27;3.07;;;-0.50;86.50;;;;;;5069211;28;20305;-74
2022/01/26 11:35:35;;;;;;;2.63;2.40;;;-0.50;86.50;;;;;;5071533;28;20183;-73
2022/01/26 11:38:15;;;;;;;2.83;2.63;;;-0.50;86.40;;;;;;5070741;28;20200;-74
2022/01/26 11:46:23;;;;;;;2.20;2.13;;;-0.30;85.90;;;;;;5074588;28;20191;-76
2022/01/26 11:49:05;;;;;;;2.47;1.93;;;-0.30;85.80;;;;;;5070622;28;20194;-75
2022/01/26 11:51:51;;;;;;;3.53;2.50;;;-0.20;85.80;;;;;;5068306;28;20259;-75
2022/01/26 11:54:22;;;;;;;3.03;2.83;;;-0.20;85.80;;;;;;5069829;28;20187;-74
2022/01/26 11:56:56;;;;;;;3.03;1.97;;;-0.10;85.80;;;;;;5068121;28;20594;-74
2022/01/26 11:59:23;;;;;;;4.73;2.87;;;-0.10;85.70;;;;;;5067897;28;20182;-73
2022/01/26 12:01:57;;;;;;;4.20;2.87;;;0.00;85.70;;;;;;5068458;28;20217;-74
2022/01/26 12:04:24;;;;;;;2.10;1.97;;;0.00;85.70;;;;;;5066411;28;20187;-73
2022/01/26 12:06:58;;;;;;;2.47;2.27;;;0.00;85.70;;;;;;5071418;28;20293;-73
2022/01/26 12:09:24;;;;;;;3.47;3.10;;;-0.10;85.80;;;;;;5069818;28;20387;-74
2022/01/26 12:11:55;;;;;;;3.77;2.97;;;-0.10;86.20;;;;;;5068802;28;20215;-73
2022/01/26 12:14:22;;;;;;;4.27;2.60;;;-0.20;86.60;;;;;;5070573;28;20187;-73
2022/01/26 12:16:51;;;;;;;5.00;2.63;;;-0.30;86.80;;;;;;5069757;28;20185;-73
2022/01/26 12:38:09;;;;;;;2.67;1.83;;;-0.60;88.60;;;;;;5073341;28;20186;-74
2022/01/26 12:43:53;;;;;;;4.60;2.10;;;-0.70;89.00;;;;;;5074079;28;20205;-74
2022/01/26 12:46:30;;;;;;;3.37;2.20;;;-0.70;89.10;;;;;;5074989;28;20658;-75
2022/01/26 12:48:56;;;;;;;4.77;2.97;;;-0.60;89.00;;;;;;5073782;28;20278;-73
2022/01/26 12:51:22;;;;;;;6.17;3.07;;;-0.60;88.80;;;;;;5075147;28;20257;-73
2022/01/26 12:53:53;;;;;;;2.97;2.70;;;-0.60;88.70;;;;;;5077126;28;20170;-73
2022/01/26 12:56:19;;;;;;;2.53;2.00;;;-0.50;88.70;;;;;;5073388;28;20194;-73
2022/01/26 12:58:45;;;;;;;1.97;1.87;;;-0.50;88.50;;;;;;5075029;28;20524;-73
2022/01/26 13:01:14;;;;;;;1.77;1.67;;;-0.50;88.40;;;;;;5073364;28;20217;-73
2022/01/26 13:03:42;;;;;;;3.93;3.67;;;-0.40;88.10;;;;;;5066799;28;20265;-74
2022/01/26 13:06:36;;;;;;;2.60;2.40;;;-0.40;88.20;;;;;;5072277;28;20882;-73
2022/01/26 13:09:17;;;;;;;3.17;2.90;;;-0.40;88.10;;;;;;5069913;28;20806;-73
2022/01/26 13:11:45;;;;;;;4.63;2.47;;;-0.40;88.10;;;;;;5073962;28;20182;-74
2022/01/26 13:14:17;;;;;;;3.87;2.70;;;-0.30;88.00;;;;;;5070570;28;20197;-74
2022/01/26 13:41:41;;;;;;;3.37;2.97;;;-0.40;88.00;;;;;;5061612;28;20217;-73
2022/01/26 13:49:31;;;;;;;2.67;2.47;;;-0.50;88.70;;;;;;5067788;28;20605;-74
2022/01/26 13:59:51;;;;;;;3.77;2.43;;;-0.50;88.70;;;;;;5003975;28;20378;-73
2022/01/26 14:02:17;;;;;;;2.77;2.40;;;-0.40;88.60;;;;;;5003429;28;20664;-73
2022/01/26 14:04:43;;;;;;;2.23;1.83;;;-0.40;88.50;;;;;;5005093;28;20200;-73
2022/01/26 14:07:08;;;;;;;2.90;2.60;;;-0.30;88.50;;;;;;5004427;28;20247;-74
2022/01/26 14:09:34;;;;;;;2.63;2.43;;;-0.30;88.30;;;;;;5006187;28;20185;-73
2022/01/26 14:12:01;;;;;;;3.63;2.47;;;-0.20;88.20;;;;;;5009584;28;20197;-73
2022/01/26 14:14:36;;;;;;;4.40;3.50;;;-0.10;88.00;;;;;;5007434;28;20188;-73
2022/01/26 14:17:04;;;;;;;4.37;2.50;;;-0.10;87.90;;;;;;5007510;28;20191;-74
2022/01/26 14:27:46;;;;;;;2.40;2.27;;;0.00;87.20;;;;;;4980345;28;20721;-74
2022/01/26 14:35:40;;;;;;;3.57;3.27;;;0.00;87.10;;;;;;4980086;28;20190;-73
2022/01/26 14:54:29;;;;;;;2.67;2.53;;;-0.30;87.70;;;;;;5006609;28;20246;-73
2022/01/26 15:35:22;;;;;;;1.97;1.80;;;-0.60;88.70;;;;;;5069417;28;20194;-73
2022/01/26 15:40:48;;;;;;;2.97;1.97;;;-0.60;88.60;;;;;;5076495;28;20751;-73
2022/01/26 15:49:15;;;;;;;2.47;2.27;;;-0.50;88.50;;;;;;5075905;28;20190;-73
2022/01/26 16:07:52;;;;;;;3.20;2.87;;;-0.60;88.50;;;;;;5067207;28;20218;-72
2022/01/26 16:21:03;;;;;;;3.30;2.60;;;-0.80;89.50;;;;;;5068880;28;20238;-73
2022/01/26 17:55:06;;;;;;;5.97;4.07;;;-1.00;92.50;;;;;;5065402;28;20183;-72
2022/01/26 18:04:15;;;;;;;4.77;3.63;;;-1.00;93.10;;;;;;5070272;28;20762;-73
2022/01/26 18:17:49;;;;;;;7.27;3.80;;;-1.00;93.10;;;;;;5070225;28;20256;-74
2022/01/26 18:26:11;;;;;;;4.67;3.23;;;-0.90;92.80;;;;;;4988450;28;20204;-74
2022/01/26 18:40:10;;;;;;;4.17;2.90;;;-0.70;92.00;;;;;;4985213;28;20461;-73
2022/01/26 18:50:32;;;;;;;5.63;3.03;;;-0.70;92.40;;;;;;4986410;28;20327;-73
2022/01/26 18:52:58;;;;;;;5.53;3.30;;;-0.70;92.30;;;;;;4987307;28;20284;-74
2022/01/26 18:55:24;;;;;;;8.13;3.53;;;-0.60;92.30;;;;;;4984827;28;20213;-74
2022/01/26 18:57:50;;;;;;;4.73;3.10;;;-0.60;92.30;;;;;;4989764;28;20204;-73
2022/01/26 19:00:16;;;;;;;4.67;4.17;;;-0.60;92.20;;;;;;4988744;28;20276;-75
2022/01/26 19:02:42;;;;;;;4.27;3.87;;;-0.60;92.20;;;;;;5064319;28;20275;-75
2022/01/26 19:05:09;;;;;;;5.83;4.37;;;-0.60;92.10;;;;;;5071184;28;20186;-73
2022/01/26 19:07:35;;;;;;;6.70;4.00;;;-0.60;92.10;;;;;;5061505;28;20532;-74
2022/01/26 19:10:01;;;;;;;6.67;3.00;;;-0.60;92.20;;;;;;5066159;28;20217;-73
2022/01/26 19:12:30;;;;;;;5.50;3.47;;;-0.60;92.20;;;;;;5073524;28;20773;-74
2022/01/26 19:15:01;;;;;;;4.73;3.67;;;-0.60;92.20;;;;;;5070817;28;20240;-74
2022/01/26 19:17:43;;;;;;;5.63;3.37;;;-0.60;92.40;;;;;;5070556;28;20186;-73
2022/01/26 19:51:56;;;;;;;4.03;3.63;;;-0.60;92.50;;;;;;5069015;28;20202;-72
2022/01/26 19:54:22;;;;;;;7.10;3.97;;;-0.60;92.50;;;;;;5064433;28;20180;-72
2022/01/26 19:56:47;;;;;;;4.00;3.13;;;-0.50;92.30;;;;;;5070838;28;20218;-72
2022/01/26 19:59:13;;;;;;;3.00;2.77;;;-0.50;92.30;;;;;;5060164;28;20186;-72
2022/01/26 20:01:39;;;;;;;4.50;3.67;;;-0.50;92.30;;;;;;5062412;28;20210;-73
2022/01/26 20:04:05;;;;;;;4.97;3.33;;;-0.50;92.20;;;;;;5063407;28;20182;-73
2022/01/26 20:06:30;;;;;;;8.07;2.80;;;-0.50;92.20;;;;;;5060851;28;20189;-72
2022/01/26 20:09:09;;;;;;;2.77;2.57;;;-0.50;92.10;;;;;;5060327;28;20633;-74
2022/01/26 20:11:52;;;;;;;4.57;3.00;;;-0.50;92.00;;;;;;5068288;28;20280;-74
2022/01/26 20:14:22;;;;;;;5.87;2.60;;;-0.50;91.90;;;;;;5058551;28;20215;-73
2022/01/26 20:16:48;;;;;;;3.83;2.70;;;-0.40;91.80;;;;;;5067293;28;20251;-74
2022/01/26 20:19:14;;;;;;;3.70;3.10;;;-0.40;91.60;;;;;;5070621;28;20178;-70
2022/01/26 20:21:39;;;;;;;2.77;2.60;;;-0.40;91.50;;;;;;5071081;28;20245;-75
2022/01/26 20:24:06;;;;;;;8.00;3.53;;;-0.30;91.40;;;;;;5069616;28;20218;-75